Terminal Aerodrome Forecast
Issued by NWS Amarillo, TX

Home | Current Version | Previous Version | Text Only | Print | Product List | Glossary On
Versions: 1 2 3 4 5 6 7 8 9 10 11 12 13 14 15 16 17 18 19 20 21
000
FTUS44 KAMA 160500
TAFAMA
TAF
KAMA 160520Z 1606/1706 01008KT P6SM SCT005 OVC050
      TEMPO 1606/1608 OVC005
     FM160800 VRB06KT P6SM OVC006
      TEMPO 1608/1612 4SM BR OVC004
     FM161600 18008KT P6SM SCT005 OVC015
     FM161900 18014KT P6SM SCT015 BKN060
     FM170200 19010KT P6SM SCT060 BKN120=

USA.gov is the U.S. government's official web portal to all federal, state and local government web resources and services.